Althea — 9HAQ7 — position and weather

sailwx.info

Track history (hours):
 
Tides and Currents Weather Stations Pressure Air Temp Water Temp Dewpoint Dewpoint Depression Visibility Wind Speed Wind Dir Waves Ship Positions

Althea

Last reported at 2014-Dec-13 10:32 UTC. Time now 2014-Dec-18 07:24 UTC.
Position N 41°20' E 029°14'.

Length 170 m; draft 5.9 m.

Type: Cargo ship. MMSI: 215047000.

Date/timePositionNaut miles runAvg speedWind from/ knotsBaromVisibWave heightAir tempDewpointWater temp
2014-Dec-13 10:32N 41°20' E 029°14'  
2014-Dec-09 13:29N 38°09' E 024°46'20 9.8
2014-Dec-09 11:27N 37°51' E 024°34'1011.6
2014-Dec-09 10:33N 37°42' E 024°29'1211.6
2014-Dec-09 09:34N 37°31' E 024°23'1211.7
2014-Dec-09 08:34N 37°22' E 024°14'1111.4
2014-Dec-09 07:34N 37°13' E 024°05'1211.1
2014-Dec-09 06:26N 37°03' E 023°55'1011.3
2014-Dec-09 05:33N 36°55' E 023°48'1111.0
2014-Dec-09 04:31N 36°46' E 023°39'  
Track history (hours):
 
Tides and Currents Weather Stations Pressure Air Temp Water Temp Dewpoint Dewpoint Depression Visibility Wind Speed Wind Dir Waves Ship Positions

Althea

Last reported at 2014-Dec-13 10:32 UTC. Time now 2014-Dec-18 07:24 UTC.
Position N 41°20' E 029°14'.

Length 170 m; draft 5.9 m.

Type: Cargo ship. MMSI: 215047000.

Date/timePositionNaut miles runAvg speedWind from/ knotsBaromVisibWave heightAir tempDewpointWater temp
2014-Dec-13 10:32N 41°20' E 029°14'  
2014-Dec-09 13:29N 38°09' E 024°46'20 9.8
2014-Dec-09 11:27N 37°51' E 024°34'1011.6
2014-Dec-09 10:33N 37°42' E 024°29'1211.6
2014-Dec-09 09:34N 37°31' E 024°23'1211.7
2014-Dec-09 08:34N 37°22' E 024°14'1111.4
2014-Dec-09 07:34N 37°13' E 024°05'1211.1
2014-Dec-09 06:26N 37°03' E 023°55'1011.3
2014-Dec-09 05:33N 36°55' E 023°48'1111.0
2014-Dec-09 04:31N 36°46' E 023°39'  

Dump ship's entire track history